createdAt,value
2022-09-09T00:02:00.211Z,15.23
2022-09-09T00:07:15.038Z,13.85
2022-09-09T00:12:21.909Z,19.90
2022-09-09T00:17:26.997Z,18.65
2022-09-09T00:22:22.171Z,17.02
2022-09-09T00:27:21.395Z,15.02
2022-09-09T00:32:20.255Z,14.82
2022-09-09T00:37:14.165Z,11.60
2022-09-09T00:42:30.357Z,14.70
2022-09-09T00:47:46.232Z,15.57
2022-09-09T00:52:49.626Z,16.35
2022-09-09T00:57:43.319Z,13.35
2022-09-09T01:03:13.397Z,11.60
2022-09-09T01:08:33.308Z,9.52
2022-09-09T01:13:32.020Z,7.28
2022-09-09T01:18:30.781Z,6.10
2022-09-09T01:24:02.709Z,10.82
2022-09-09T01:29:06.164Z,8.60
2022-09-09T01:34:03.136Z,5.53
2022-09-09T01:38:57.114Z,8.05
2022-09-09T01:43:52.179Z,7.70
2022-09-09T01:48:45.200Z,9.27
2022-09-09T01:58:45.209Z,8.25
2022-09-09T02:03:38.630Z,9.27
2022-09-09T02:08:48.413Z,10.00
2022-09-09T02:13:43.481Z,10.85
2022-09-09T02:18:43.163Z,9.43
2022-09-09T02:23:38.033Z,12.43
2022-09-09T02:28:35.916Z,12.02
2022-09-09T02:33:35.936Z,8.93
2022-09-09T02:38:31.545Z,10.70
2022-09-09T02:43:38.847Z,6.78
2022-09-09T02:49:04.982Z,12.98
2022-09-09T02:54:09.616Z,10.57
2022-09-09T02:59:06.230Z,10.75
2022-09-09T03:04:02.454Z,11.73
2022-09-09T03:08:56.660Z,7.65
2022-09-09T03:13:53.524Z,11.65
2022-09-09T03:18:48.526Z,7.82
2022-09-09T03:23:42.103Z,8.70
2022-09-09T03:28:37.159Z,8.80
2022-09-09T03:33:31.813Z,8.25
2022-09-09T03:38:26.210Z,11.90
2022-09-09T03:43:20.409Z,9.27
2022-09-09T03:48:15.127Z,13.73
2022-09-09T03:53:08.972Z,13.25
2022-09-09T03:58:03.001Z,10.85
2022-09-09T04:02:58.321Z,8.65
2022-09-09T04:07:53.079Z,6.53
2022-09-09T04:12:49.516Z,9.82
2022-09-09T04:17:44.563Z,7.65
2022-09-09T04:22:39.776Z,8.73
2022-09-09T04:27:34.044Z,9.48
2022-09-09T04:32:28.153Z,10.77
2022-09-09T04:37:22.365Z,6.93
2022-09-09T04:42:17.465Z,5.75
2022-09-09T04:47:11.378Z,6.53
2022-09-09T04:52:05.505Z,8.02
2022-09-09T04:57:01.753Z,8.02
2022-09-09T05:01:57.084Z,4.07
2022-09-09T05:06:50.868Z,6.45
2022-09-09T05:11:45.724Z,6.65
2022-09-09T05:16:50.970Z,4.03
2022-09-09T05:21:45.559Z,10.57
2022-09-09T05:26:41.525Z,8.80
2022-09-09T05:31:36.165Z,15.18
2022-09-09T05:36:33.971Z,13.43
2022-09-09T05:41:27.285Z,12.27
2022-09-09T05:46:23.386Z,14.63
2022-09-09T05:51:23.453Z,15.82
2022-09-09T05:56:20.308Z,11.15
2022-09-09T06:01:15.513Z,10.75
2022-09-09T06:06:11.794Z,9.25
2022-09-09T06:11:15.429Z,8.65
2022-09-09T06:16:14.056Z,12.23
2022-09-09T06:21:13.578Z,12.80
2022-09-09T06:26:27.042Z,10.90
2022-09-09T06:31:29.688Z,17.02
2022-09-09T06:36:34.823Z,27.13
2022-09-09T06:41:31.828Z,25.48
2022-09-09T06:46:31.972Z,18.83
2022-09-09T06:51:34.176Z,29.73
2022-09-09T06:56:31.549Z,29.30
2022-09-09T07:01:28.575Z,26.08
2022-09-09T07:06:27.896Z,23.10
2022-09-09T07:11:27.345Z,24.60
2022-09-09T07:16:22.856Z,13.82
2022-09-09T07:21:17.879Z,9.68
2022-09-09T07:26:15.203Z,10.60
2022-09-09T07:31:09.587Z,10.02
2022-09-09T07:36:10.920Z,8.02
2022-09-09T07:41:29.840Z,8.25
2022-09-09T07:46:25.531Z,11.77
2022-09-09T07:51:21.310Z,10.38
2022-09-09T07:56:18.786Z,16.38
2022-09-09T08:01:19.603Z,16.15
2022-09-09T08:06:15.412Z,19.80
2022-09-09T08:11:16.410Z,28.45
2022-09-09T08:16:14.235Z,39.13
2022-09-09T08:21:15.780Z,38.83
2022-09-09T08:26:13.008Z,40.63
2022-09-09T08:31:22.192Z,43.10
2022-09-09T08:36:18.840Z,32.80
2022-09-09T08:41:25.210Z,43.67
2022-09-09T08:46:22.186Z,37.75
2022-09-09T08:51:15.631Z,28.20
2022-09-09T08:56:20.511Z,31.70
2022-09-09T09:01:22.970Z,36.90
2022-09-09T09:07:06.645Z,38.05
2022-09-09T09:12:03.928Z,35.17
2022-09-09T09:17:08.114Z,40.80
2022-09-09T09:22:21.753Z,42.90
2022-09-09T09:27:53.109Z,44.00
2022-09-09T09:33:30.486Z,41.05
2022-09-09T09:43:46.487Z,31.95
2022-09-09T09:48:42.860Z,26.15
2022-09-09T09:58:35.798Z,24.58
2022-09-09T10:03:31.762Z,19.42
2022-09-09T10:08:28.867Z,22.65
2022-09-09T10:13:32.102Z,14.32
2022-09-09T10:23:58.424Z,10.18
2022-09-09T10:29:06.598Z,15.40
2022-09-09T10:34:11.867Z,13.45
2022-09-09T10:39:29.910Z,15.18
2022-09-09T10:44:28.648Z,13.13
2022-09-09T10:49:40.060Z,13.55
2022-09-09T10:54:56.131Z,15.93
2022-09-09T10:59:54.041Z,12.88
2022-09-09T11:04:58.555Z,16.02
2022-09-09T11:09:57.304Z,10.15
2022-09-09T11:14:55.577Z,10.85
2022-09-09T11:19:50.422Z,11.07
2022-09-09T11:24:53.658Z,6.20
2022-09-09T11:29:58.904Z,6.65
2022-09-09T11:35:24.489Z,6.90
2022-09-09T11:40:28.617Z,9.15
2022-09-09T11:45:30.197Z,6.10
2022-09-09T11:50:23.292Z,4.75
2022-09-09T11:55:32.534Z,6.78
2022-09-09T12:00:38.823Z,7.28
2022-09-09T12:05:43.958Z,4.95
2022-09-09T12:10:43.767Z,11.70
2022-09-09T12:15:38.551Z,9.80
2022-09-09T12:20:32.562Z,8.60
2022-09-09T12:25:35.573Z,9.15
2022-09-09T12:30:40.038Z,9.02
2022-09-09T12:35:33.320Z,8.18
2022-09-09T12:40:31.966Z,8.10
2022-09-09T12:45:32.190Z,8.70
2022-09-09T12:50:35.218Z,6.40
2022-09-09T12:55:38.872Z,8.07
2022-09-09T13:00:32.971Z,5.07
2022-09-09T13:05:38.785Z,5.00
2022-09-09T13:10:51.735Z,7.18
2022-09-09T13:15:55.766Z,7.72
2022-09-09T13:25:45.332Z,6.75
2022-09-09T13:30:45.747Z,5.55
2022-09-09T13:35:58.231Z,7.55
2022-09-09T13:41:06.739Z,4.78
2022-09-09T13:46:05.560Z,8.25
2022-09-09T13:51:00.847Z,6.07
2022-09-09T13:55:55.262Z,8.50
2022-09-09T14:00:48.341Z,5.55
2022-09-09T14:05:41.621Z,6.97
2022-09-09T14:10:39.107Z,7.53
2022-09-09T14:15:33.842Z,5.00
2022-09-09T14:20:27.661Z,5.38
2022-09-09T14:25:20.014Z,8.18
2022-09-09T14:30:15.649Z,6.50
2022-09-09T14:35:09.638Z,5.03
2022-09-09T14:40:04.095Z,7.65
2022-09-09T14:44:57.557Z,7.63
2022-09-09T14:49:51.825Z,6.13
2022-09-09T14:54:44.989Z,6.93
2022-09-09T14:59:39.004Z,8.18
2022-09-09T15:04:33.410Z,7.53
2022-09-09T15:09:27.411Z,7.85
2022-09-09T15:14:22.619Z,4.80
2022-09-09T15:19:19.163Z,8.32
2022-09-09T15:24:15.545Z,9.20
2022-09-09T15:29:10.300Z,7.22
2022-09-09T15:34:06.527Z,8.48
2022-09-09T15:39:00.344Z,7.90
2022-09-09T15:43:58.391Z,9.48
2022-09-09T15:48:54.351Z,9.13
2022-09-09T15:53:48.666Z,6.57
2022-09-09T15:58:44.180Z,6.70
2022-09-09T16:04:01.592Z,10.35
2022-09-09T16:08:56.471Z,5.22
2022-09-09T16:13:56.118Z,5.45
2022-09-09T16:18:53.354Z,6.55
2022-09-09T16:23:47.253Z,5.32
2022-09-09T16:28:45.670Z,9.35
2022-09-09T16:33:39.740Z,5.65
2022-09-09T16:38:34.686Z,13.13
2022-09-09T16:43:28.821Z,8.02
2022-09-09T16:48:22.017Z,7.93
2022-09-09T16:53:16.954Z,5.05
2022-09-09T16:58:13.360Z,10.77
2022-09-09T17:03:07.476Z,4.43
2022-09-09T17:08:04.314Z,11.82
2022-09-09T17:12:58.456Z,5.05
2022-09-09T17:17:54.521Z,3.10
2022-09-09T17:22:48.956Z,4.78
2022-09-09T17:27:42.712Z,6.10
2022-09-09T17:32:37.231Z,7.18
2022-09-09T17:37:34.553Z,3.95
2022-09-09T17:42:29.433Z,8.77
2022-09-09T17:47:27.831Z,6.90
2022-09-09T17:52:21.143Z,8.05
2022-09-09T17:57:21.352Z,7.55
2022-09-09T18:02:15.295Z,6.80
2022-09-09T18:07:14.006Z,6.07
2022-09-09T18:12:08.659Z,5.65
2022-09-09T18:17:04.950Z,8.25
2022-09-09T18:22:01.884Z,7.80
2022-09-09T18:26:56.601Z,6.60
2022-09-09T18:31:50.586Z,10.15
2022-09-09T18:36:47.724Z,7.75
2022-09-09T18:41:46.004Z,7.85
2022-09-09T18:46:40.786Z,6.95
2022-09-09T18:51:35.424Z,8.93
2022-09-09T18:56:33.207Z,7.10
2022-09-09T19:01:27.430Z,6.45
2022-09-09T19:06:26.583Z,7.30
2022-09-09T19:11:26.206Z,4.80
2022-09-09T19:16:23.508Z,8.30
2022-09-09T19:21:28.436Z,7.25
2022-09-09T19:26:22.891Z,11.25
2022-09-09T19:31:18.841Z,8.75
2022-09-09T19:36:14.650Z,12.32
2022-09-09T19:41:09.944Z,8.65
2022-09-09T19:46:07.498Z,12.23
2022-09-09T19:51:05.972Z,11.10
2022-09-09T19:55:59.983Z,7.60
2022-09-09T20:00:54.377Z,11.32
2022-09-09T20:05:49.861Z,9.10
2022-09-09T20:10:52.805Z,8.55
2022-09-09T20:21:00.891Z,6.70
2022-09-09T20:25:54.253Z,11.02
2022-09-09T20:30:51.957Z,7.65
2022-09-09T20:35:46.421Z,5.97
2022-09-09T20:40:40.423Z,11.95
2022-09-09T20:45:38.749Z,7.05
2022-09-09T20:50:33.020Z,4.68
2022-09-09T20:55:27.509Z,6.20
2022-09-09T21:00:22.034Z,6.40
2022-09-09T21:05:24.059Z,4.85
2022-09-09T21:10:18.382Z,4.50
2022-09-09T21:15:13.337Z,6.38
2022-09-09T21:20:09.469Z,6.45
2022-09-09T21:25:03.646Z,4.30
2022-09-09T21:29:57.804Z,2.85
2022-09-09T21:34:51.114Z,8.38
2022-09-09T21:39:46.277Z,6.22
2022-09-09T21:44:40.953Z,5.78
2022-09-09T21:49:34.824Z,6.65
2022-09-09T21:54:34.138Z,6.75
2022-09-09T21:59:28.936Z,7.65
2022-09-09T22:04:21.791Z,7.43
2022-09-09T22:09:17.971Z,6.38
2022-09-09T22:14:12.089Z,8.57
2022-09-09T22:19:08.089Z,7.03
2022-09-09T22:24:04.372Z,9.68
2022-09-09T22:28:58.019Z,9.18
2022-09-09T22:33:54.949Z,7.82
2022-09-09T22:38:49.608Z,9.02
2022-09-09T22:43:44.247Z,8.20
2022-09-09T22:48:40.506Z,9.23
2022-09-09T22:53:34.832Z,15.00
2022-09-09T22:58:30.285Z,15.18
2022-09-09T23:03:24.639Z,17.13
2022-09-09T23:08:19.544Z,14.77
2022-09-09T23:13:13.459Z,17.83
2022-09-09T23:18:07.710Z,20.45
2022-09-09T23:23:01.374Z,18.30
2022-09-09T23:27:55.449Z,16.92
2022-09-09T23:32:53.047Z,18.25
2022-09-09T23:37:47.513Z,16.02
2022-09-09T23:42:41.075Z,17.00
2022-09-09T23:47:35.028Z,13.35
2022-09-09T23:52:28.980Z,14.45
2022-09-09T23:57:26.505Z,15.88
